Time;durP1;ratioP1;P1;durP2;ratioP2;P2;SDS_P1;SDS_P2;PMS_P1;PMS_P2;Temp;Humidity;BMP_temperature;BMP_pressure;BME280_temperature;BME280_humidity;BME280_pressure;Samples;Min_cycle;Max_cycle;Signal;HPM_P1;HPM_P2
2022/08/20 00:01:38;;;;;;;15.75;8.60;;;;;;;27.34;52.70;99346.00;5114532;28;20039;-72
2022/08/20 00:04:04;;;;;;;15.80;8.23;;;;;;;27.26;52.94;99343.88;5121355;28;20054;-72
2022/08/20 00:06:29;;;;;;;17.33;7.93;;;;;;;27.29;52.37;99349.56;5120903;28;20042;-72
2022/08/20 00:08:55;;;;;;;14.07;8.43;;;;;;;27.35;53.06;99351.16;5117413;28;20063;-72
2022/08/20 00:11:23;;;;;;;11.00;7.93;;;;;;;27.28;53.56;99349.84;5122125;28;20217;-72
2022/08/20 00:13:52;;;;;;;14.02;8.40;;;;;;;27.11;53.89;99350.19;5122219;28;20032;-71
2022/08/20 00:16:20;;;;;;;15.15;8.07;;;;;;;27.05;54.38;99345.88;5121275;28;20337;-71
2022/08/20 00:18:45;;;;;;;14.55;9.00;;;;;;;26.94;53.56;99342.34;5121932;28;20053;-71
2022/08/20 00:21:14;;;;;;;17.30;8.85;;;;;;;26.84;54.23;99338.84;5122495;28;20062;-72
2022/08/20 00:23:43;;;;;;;17.95;9.15;;;;;;;26.93;55.28;99342.63;5121723;28;20217;-72
2022/08/20 00:26:10;;;;;;;14.25;8.90;;;;;;;26.79;55.98;99328.81;5118977;28;20024;-72
2022/08/20 00:28:36;;;;;;;15.77;9.02;;;;;;;26.72;57.10;99328.31;5122365;28;20050;-72
2022/08/20 00:31:05;;;;;;;16.52;8.05;;;;;;;26.51;57.88;99326.75;5121578;28;20040;-72
2022/08/20 00:33:31;;;;;;;17.83;8.77;;;;;;;26.53;57.09;99335.44;5119192;28;20093;-72
2022/08/20 00:35:56;;;;;;;13.25;9.25;;;;;;;26.52;56.60;99336.53;5122087;28;20039;-72
2022/08/20 00:38:23;;;;;;;13.23;8.85;;;;;;;26.48;57.27;99336.28;5122658;28;20031;-72
2022/08/20 00:40:55;;;;;;;13.25;8.77;;;;;;;26.42;56.79;99334.66;5125093;28;20291;-72
2022/08/20 00:43:45;;;;;;;13.75;8.77;;;;;;;26.43;57.02;99330.06;5123345;28;20331;-72
2022/08/20 00:46:18;;;;;;;19.73;9.10;;;;;;;26.36;56.78;99324.91;5103978;28;20027;-72
2022/08/20 00:48:47;;;;;;;13.00;9.05;;;;;;;26.33;56.93;99323.56;5121867;28;20268;-72
2022/08/20 00:51:43;;;;;;;16.65;9.25;;;;;;;26.25;56.58;99324.09;5120935;28;20092;-72
2022/08/20 00:54:19;;;;;;;18.00;9.13;;;;;;;26.31;56.79;99330.31;5121538;28;20260;-72
2022/08/20 00:56:48;;;;;;;15.15;9.00;;;;;;;26.34;57.23;99332.50;5120736;28;20050;-72
2022/08/20 00:59:20;;;;;;;14.85;7.95;;;;;;;26.40;57.48;99325.97;5121077;28;20035;-72
2022/08/20 01:01:46;;;;;;;23.40;9.15;;;;;;;26.18;57.73;99307.28;5103358;28;20031;-72
2022/08/20 01:04:11;;;;;;;13.02;8.57;;;;;;;26.20;58.79;99326.81;5120824;28;20053;-72
2022/08/20 01:06:38;;;;;;;12.07;8.20;;;;;;;26.12;58.09;99329.28;5124164;28;20325;-72
2022/08/20 01:09:05;;;;;;;15.25;9.68;;;;;;;26.08;58.10;99323.56;5104884;28;20304;-71
2022/08/20 01:11:34;;;;;;;15.68;9.13;;;;;;;26.16;58.53;99333.06;5121651;28;20042;-72
2022/08/20 01:14:18;;;;;;;15.60;8.85;;;;;;;26.19;58.92;99335.22;5120771;28;20031;-72
2022/08/20 01:16:45;;;;;;;;;;;;;;;26.33;59.32;99336.31;5104141;28;20100;-72
2022/08/20 01:19:13;;;;;;;16.42;8.98;;;;;;;26.27;59.09;99334.66;5105103;28;19937;-72
2022/08/20 01:21:39;;;;;;;16.73;9.98;;;;;;;26.24;59.01;99340.66;5121181;28;20028;-72
2022/08/20 01:24:23;;;;;;;19.10;8.80;;;;;;;26.31;59.22;99335.75;5124088;28;20296;-72
2022/08/20 01:26:49;;;;;;;19.10;9.07;;;;;;;26.21;59.13;99324.91;5121742;28;20086;-72
2022/08/20 01:29:22;;;;;;;14.07;8.77;;;;;;;26.17;59.06;99331.97;5121437;28;20042;-72
2022/08/20 01:31:48;;;;;;;13.55;8.65;;;;;;;26.08;59.25;99324.41;5123087;28;20100;-72
2022/08/20 01:34:16;;;;;;;21.05;9.38;;;;;;;25.95;59.71;99324.91;5123596;28;20054;-72
2022/08/20 01:36:51;;;;;;;14.85;8.82;;;;;;;25.76;60.60;99318.41;5121233;28;20019;-71
2022/08/20 01:39:26;;;;;;;14.30;10.25;;;;;;;25.59;60.84;99310.53;5123432;28;20035;-71
2022/08/20 01:41:55;;;;;;;19.10;10.40;;;;;;;25.62;61.52;99310.00;5122565;28;20352;-71
2022/08/20 01:44:23;;;;;;;13.95;10.05;;;;;;;25.58;60.56;99311.63;5120231;28;20066;-71
2022/08/20 01:46:50;;;;;;;14.73;10.10;;;;;;;25.26;60.90;99295.59;5119837;28;20023;-71
2022/08/20 01:49:34;;;;;;;21.10;10.50;;;;;;;25.09;62.02;99308.56;5116896;28;20065;-71
2022/08/20 01:52:06;;;;;;;16.20;9.90;;;;;;;24.70;63.26;99302.69;5119262;28;20027;-71
2022/08/20 01:54:32;;;;;;;14.52;10.80;;;;;;;24.72;62.94;99308.66;5123450;28;20043;-71
2022/08/20 01:57:14;;;;;;;16.92;10.70;;;;;;;24.71;63.25;99307.84;5121466;28;20030;-71
2022/08/20 01:59:41;;;;;;;16.63;10.07;;;;;;;24.83;63.61;99313.84;5120811;28;20050;-72
2022/08/20 02:02:07;;;;;;;19.08;11.85;;;;;;;24.93;63.48;99314.97;5119701;28;20062;-71
2022/08/20 02:04:34;;;;;;;18.02;10.95;;;;;;;25.07;62.97;99318.84;5119946;28;20047;-71
2022/08/20 02:07:03;;;;;;;17.15;11.82;;;;;;;25.19;62.48;99314.00;5120582;28;20038;-71
2022/08/20 02:09:34;;;;;;;17.98;11.00;;;;;;;25.43;61.72;99309.72;5119813;28;20048;-72
2022/08/20 02:12:01;;;;;;;17.40;10.40;;;;;;;25.61;60.91;99310.25;5119471;28;20031;-72
2022/08/20 02:14:28;;;;;;;17.20;11.63;;;;;;;25.77;60.48;99317.34;5120436;28;20317;-72
2022/08/20 02:16:57;;;;;;;18.08;10.93;;;;;;;25.86;60.08;99315.72;5120095;28;20236;-72
2022/08/20 02:19:29;;;;;;;19.25;11.20;;;;;;;25.89;60.40;99317.06;5122875;28;20112;-72
2022/08/20 02:21:59;;;;;;;19.25;11.77;;;;;;;25.92;60.22;99316.50;5121566;28;20026;-72
2022/08/20 02:24:24;;;;;;;19.95;11.65;;;;;;;25.95;60.28;99316.78;5123782;28;20263;-72
2022/08/20 02:26:51;;;;;;;22.65;11.18;;;;;;;25.81;60.17;99315.72;5122409;28;20020;-72
2022/08/20 02:29:17;;;;;;;20.08;12.00;;;;;;;25.86;60.08;99326.56;5119990;28;20043;-72
2022/08/20 02:31:46;;;;;;;23.50;12.48;;;;;;;25.81;60.17;99323.03;5119029;28;20088;-72
2022/08/20 02:34:13;;;;;;;18.48;12.13;;;;;;;25.89;60.08;99323.31;5119889;28;20102;-72
2022/08/20 02:36:40;;;;;;;16.50;11.90;;;;;;;25.89;60.03;99327.91;5119941;28;20316;-72
2022/08/20 02:39:10;;;;;;;16.20;11.70;;;;;;;25.88;60.22;99335.22;5122575;28;20299;-72
2022/08/20 02:41:37;;;;;;;21.45;12.15;;;;;;;25.86;60.30;99326.56;5120785;28;20016;-72
2022/08/20 02:44:05;;;;;;;21.02;11.95;;;;;;;25.90;60.23;99327.63;5120166;28;20047;-72
2022/08/20 02:46:31;;;;;;;20.75;11.82;;;;;;;25.87;60.36;99321.94;5121280;28;20097;-72
2022/08/20 02:48:58;;;;;;;20.20;11.70;;;;;;;25.84;59.83;99314.34;5121948;28;20031;-72
2022/08/20 02:51:24;;;;;;;23.65;12.43;;;;;;;25.81;59.79;99313.00;5102602;28;20225;-71
2022/08/20 02:53:50;;;;;;;21.42;11.73;;;;;;;25.76;60.43;99316.53;5123017;28;20035;-72
2022/08/20 02:56:16;;;;;;;18.40;12.52;;;;;;;25.66;60.51;99316.53;5119427;28;20034;-72
2022/08/20 02:58:42;;;;;;;20.00;11.63;;;;;;;25.29;61.10;99308.59;5118416;28;20036;-72
2022/08/20 03:01:12;;;;;;;20.45;11.82;;;;;;;25.05;61.59;99315.59;5097398;28;20093;-71
2022/08/20 03:03:41;;;;;;;21.80;12.60;;;;;;;24.75;63.21;99316.25;5119149;28;20035;-71
2022/08/20 03:06:08;;;;;;;19.20;12.10;;;;;;;24.80;63.66;99317.09;5118437;28;20035;-71
2022/08/20 03:08:34;;;;;;;18.05;12.63;;;;;;;24.80;63.99;99325.22;5116556;28;20039;-71
2022/08/20 03:11:00;;;;;;;16.17;12.82;;;;;;;24.95;63.64;99319.03;5121609;28;20317;-71
2022/08/20 03:13:26;;;;;;;27.80;12.27;;;;;;;25.01;63.50;99320.75;5120513;28;20059;-71
2022/08/20 03:15:58;;;;;;;143.27;19.27;;;;;;;25.05;63.30;99321.84;5121650;28;20087;-71
2022/08/20 03:18:26;;;;;;;28.10;12.27;;;;;;;25.04;63.07;99314.78;5121051;28;20214;-71
2022/08/20 03:20:52;;;;;;;22.95;13.20;;;;;;;25.15;62.91;99318.34;5115364;28;20039;-71
2022/08/20 03:23:19;;;;;;;17.35;12.50;;;;;;;25.02;62.92;99299.88;5119018;28;20084;-72
2022/08/20 03:25:46;;;;;;;19.75;12.90;;;;;;;25.07;62.92;99318.84;5117963;28;20080;-72
2022/08/20 03:28:12;;;;;;;21.75;12.23;;;;;;;25.12;62.79;99318.88;5119290;28;20386;-71
2022/08/20 03:30:39;;;;;;;23.08;13.23;;;;;;;25.10;62.53;99311.00;5117735;28;20042;-72
2022/08/20 03:33:05;;;;;;;18.50;12.18;;;;;;;25.18;62.10;99315.09;5119302;28;20027;-72
2022/08/20 03:35:32;;;;;;;21.30;12.55;;;;;;;25.14;62.14;99316.72;5114996;28;20251;-72
2022/08/20 03:37:58;;;;;;;21.70;13.93;;;;;;;25.11;62.28;99319.94;5119150;28;20257;-72
2022/08/20 03:40:30;;;;;;;16.65;12.38;;;;;;;25.06;62.55;99319.94;5117981;28;20042;-72
2022/08/20 03:42:57;;;;;;;21.55;12.45;;;;;;;25.11;62.45;99325.38;5100601;28;20036;-72
2022/08/20 03:45:24;;;;;;;24.05;12.55;;;;;;;25.16;63.04;99328.09;5099157;28;20321;-72
2022/08/20 03:47:52;;;;;;;19.92;12.07;;;;;;;25.21;62.66;99319.97;5121298;28;20027;-72
2022/08/20 03:50:20;;;;;;;28.65;13.20;;;;;;;25.21;62.28;99319.16;5122212;28;20024;-72
2022/08/20 03:52:45;;;;;;;32.13;12.55;;;;;;;25.22;62.44;99326.22;5118113;28;20020;-72
2022/08/20 03:55:12;;;;;;;21.45;12.52;;;;;;;25.08;62.47;99325.91;5118617;28;20040;-72
2022/08/20 03:57:48;;;;;;;22.35;12.40;;;;;;;24.97;62.79;99325.06;5118411;28;20035;-72
2022/08/20 04:00:15;;;;;;;21.35;12.07;;;;;;;25.06;62.73;99336.19;5117785;28;21307;-72
2022/08/20 04:02:41;;;;;;;18.58;12.15;;;;;;;25.12;63.32;99335.94;5117745;28;20039;-72
2022/08/20 04:05:07;;;;;;;22.75;12.05;;;;;;;25.16;62.82;99338.94;5118619;28;20043;-72
2022/08/20 04:07:32;;;;;;;25.50;14.77;;;;;;;25.09;62.81;99328.34;5117451;28;20124;-72
2022/08/20 04:09:58;;;;;;;26.23;13.18;;;;;;;25.22;62.82;99332.44;5117996;28;20027;-72
2022/08/20 04:12:24;;;;;;;22.63;12.25;;;;;;;25.25;62.91;99333.81;5118373;28;20388;-72
2022/08/20 04:14:51;;;;;;;25.52;12.57;;;;;;;25.27;63.23;99327.03;5118592;28;20406;-72
2022/08/20 04:17:18;;;;;;;25.30;12.07;;;;;;;25.35;62.78;99339.25;5120836;28;20232;-72
2022/08/20 04:19:44;;;;;;;24.80;12.30;;;;;;;25.35;63.02;99336.53;5101397;28;20259;-72
2022/08/20 04:22:13;;;;;;;20.10;12.38;;;;;;;25.38;62.47;99350.34;5119283;28;20037;-72
2022/08/20 04:24:41;;;;;;;19.67;12.10;;;;;;;25.43;62.72;99339.53;5117363;28;20039;-72
2022/08/20 04:27:08;;;;;;;21.65;12.13;;;;;;;25.43;62.99;99344.13;5099901;28;20032;-72
2022/08/20 04:29:35;;;;;;;26.60;13.55;;;;;;;25.59;62.20;99344.97;5117509;28;20099;-72
2022/08/20 04:32:02;;;;;;;20.02;12.85;;;;;;;25.58;63.06;99335.19;5120931;28;20043;-72
2022/08/20 04:34:28;;;;;;;26.00;11.80;;;;;;;25.68;63.48;99346.91;5119757;28;20044;-72
2022/08/20 04:36:54;;;;;;;20.83;12.10;;;;;;;25.67;63.55;99339.84;5118647;28;20035;-72
2022/08/20 04:39:19;;;;;;;21.45;12.73;;;;;;;25.56;63.75;99346.31;5117144;28;20063;-72
2022/08/20 04:41:45;;;;;;;20.15;13.35;;;;;;;25.58;63.73;99344.16;5117658;28;20059;-72
2022/08/20 04:44:11;;;;;;;19.65;12.70;;;;;;;25.51;64.49;99340.88;5118035;28;20218;-72
2022/08/20 04:46:38;;;;;;;21.38;13.18;;;;;;;25.69;63.21;99353.94;5118533;28;20110;-72
2022/08/20 04:49:05;;;;;;;19.08;12.52;;;;;;;25.77;63.52;99347.97;5117294;28;20107;-72
2022/08/20 04:51:32;;;;;;;19.30;12.32;;;;;;;25.81;62.94;99348.25;5117000;28;20091;-72
2022/08/20 04:53:59;;;;;;;25.23;13.73;;;;;;;25.92;62.27;99344.47;5117820;28;20064;-72
2022/08/20 04:56:28;;;;;;;24.02;13.32;;;;;;;26.08;62.03;99346.09;5103514;28;20049;-72
2022/08/20 04:59:00;;;;;;;19.20;13.00;;;;;;;26.25;61.82;99343.09;5124229;28;20329;-72
2022/08/20 05:01:26;;;;;;;21.08;12.48;;;;;;;26.27;61.00;99351.78;5120761;28;20031;-72
2022/08/20 05:03:54;;;;;;;19.33;12.70;;;;;;;26.45;60.92;99352.31;5122029;28;20059;-72
2022/08/20 05:06:20;;;;;;;19.60;12.18;;;;;;;26.61;60.61;99353.88;5121744;28;20035;-72
2022/08/20 05:08:46;;;;;;;20.85;13.02;;;;;;;26.89;59.13;99345.09;5120740;28;20071;-72
2022/08/20 05:11:13;;;;;;;22.77;13.43;;;;;;;27.03;58.59;99348.03;5122045;28;20042;-72
2022/08/20 05:13:39;;;;;;;18.75;12.75;;;;;;;27.08;58.29;99345.31;5088969;28;20225;-72
2022/08/20 05:16:05;;;;;;;17.30;11.65;;;;;;;27.00;57.06;99343.16;5103433;28;20036;-72
2022/08/20 05:18:32;;;;;;;17.15;12.30;;;;;;;27.08;56.68;99345.31;5103620;28;20080;-72
2022/08/20 05:21:03;;;;;;;19.95;12.07;;;;;;;27.21;56.23;99339.28;5123497;28;20027;-72
2022/08/20 05:23:29;;;;;;;21.42;11.60;;;;;;;27.26;56.53;99344.69;5122140;28;20035;-72
2022/08/20 05:25:56;;;;;;;19.80;12.15;;;;;;;27.50;55.59;99347.50;5124520;28;20243;-72
2022/08/20 05:28:24;;;;;;;20.73;11.15;;;;;;;27.70;54.70;99341.13;5121715;28;20085;-72
2022/08/20 05:30:52;;;;;;;21.98;11.55;;;;;;;27.96;52.59;99350.72;5121271;28;20035;-72
2022/08/20 05:33:20;;;;;;;21.85;12.43;;;;;;;28.11;52.34;99340.81;5122381;28;20090;-72
2022/08/20 05:35:48;;;;;;;19.95;12.90;;;;;;;28.19;52.70;99348.34;5123538;28;20043;-72
2022/08/20 05:38:15;;;;;;;23.17;12.85;;;;;;;28.30;52.44;99352.63;5120722;28;20048;-72
2022/08/20 05:40:41;;;;;;;18.25;11.65;;;;;;;28.44;51.84;99339.94;5120781;28;20016;-72
2022/08/20 05:43:08;;;;;;;22.65;12.02;;;;;;;28.69;50.82;99346.22;5123503;28;20072;-72
2022/08/20 05:45:38;;;;;;;19.88;12.80;;;;;;;28.91;51.47;99352.78;5122411;28;20169;-72
2022/08/20 05:48:10;;;;;;;17.38;12.55;;;;;;;28.82;50.38;99350.94;5119901;28;20090;-72
2022/08/20 05:50:41;;;;;;;20.52;12.82;;;;;;;29.04;50.02;99350.44;5120224;28;20049;-72
2022/08/20 05:53:07;;;;;;;21.77;11.82;;;;;;;29.18;49.21;99337.72;5123119;28;20150;-72
2022/08/20 05:55:33;;;;;;;21.65;11.93;;;;;;;29.42;49.42;99343.91;5122036;28;20042;-72
2022/08/20 05:58:01;;;;;;;22.35;12.48;;;;;;;29.61;49.15;99341.19;5122858;28;20427;-72
2022/08/20 06:00:28;;;;;;;25.50;12.70;;;;;;;29.79;47.88;99339.53;5105537;28;20282;-72
2022/08/20 06:05:38;;;;;;;22.85;12.15;;;;;;;29.97;46.76;99335.16;5104689;28;20112;-72
2022/08/20 06:08:06;;;;;;;18.42;12.82;;;;;;;29.91;47.22;99333.63;5119554;28;20086;-72
2022/08/20 06:10:31;;;;;;;18.17;11.50;;;;;;;29.83;46.88;99324.19;5119796;28;20372;-72
2022/08/20 06:12:57;;;;;;;21.25;11.02;;;;;;;29.20;48.24;99332.78;5120129;28;20047;-72
2022/08/20 06:15:22;;;;;;;23.65;11.80;;;;;;;29.23;48.76;99338.47;5119360;28;20043;-72
2022/08/20 06:17:48;;;;;;;18.33;11.55;;;;;;;29.11;48.92;99348.97;5120894;28;20030;-72
2022/08/20 06:20:13;;;;;;;22.13;12.80;;;;;;;28.86;49.61;99322.03;5119387;28;20039;-72
2022/08/20 06:22:39;;;;;;;23.70;13.60;;;;;;;29.04;50.62;99343.06;5119479;28;20237;-72
2022/08/20 06:25:06;;;;;;;31.10;15.65;;;;;;;29.24;49.98;99342.81;5119652;28;20035;-72
2022/08/20 06:27:32;;;;;;;28.75;16.30;;;;;;;29.35;49.96;99339.94;5119588;28;20041;-72
2022/08/20 06:29:57;;;;;;;29.15;15.40;;;;;;;29.21;49.68;99342.59;5101317;28;20349;-72
2022/08/20 06:32:25;;;;;;;25.70;14.70;;;;;;;28.99;50.67;99340.41;5118981;28;20072;-72
2022/08/20 06:34:51;;;;;;;22.27;12.85;;;;;;;29.38;50.86;99326.53;5119731;28;20317;-72
2022/08/20 06:37:23;;;;;;;29.08;11.20;;;;;;;29.43;50.65;99334.66;5120057;28;20107;-72
2022/08/20 06:39:49;;;;;;;17.55;10.35;;;;;;;29.49;50.38;99336.19;5119066;28;20363;-72
2022/08/20 06:42:15;;;;;;;25.80;12.05;;;;;;;29.66;49.97;99334.84;5119869;28;20325;-72
2022/08/20 06:44:41;;;;;;;21.05;10.15;;;;;;;29.80;49.92;99330.25;5118656;28;20051;-72
2022/08/20 06:47:06;;;;;;;21.23;11.30;;;;;;;30.03;49.10;99332.06;5118571;28;20031;-72
2022/08/20 06:49:35;;;;;;;15.60;9.90;;;;;;;30.10;48.59;99326.22;5119565;28;20043;-72
2022/08/20 06:52:04;;;;;;;16.60;9.70;;;;;;;30.18;49.20;99328.28;5100479;28;20047;-72
2022/08/20 06:54:33;;;;;;;18.40;10.15;;;;;;;30.18;48.63;99320.88;5118869;28;20089;-72
2022/08/20 06:56:58;;;;;;;17.92;10.43;;;;;;;30.39;48.06;99329.50;5120347;28;20031;-72
2022/08/20 06:59:24;;;;;;;25.08;9.82;;;;;;;30.39;48.04;99324.03;5119101;28;20031;-72
2022/08/20 07:01:49;;;;;;;15.88;9.35;;;;;;;30.47;46.89;99330.72;5118516;28;20031;-72
2022/08/20 07:04:15;;;;;;;12.85;9.07;;;;;;;30.52;47.62;99322.44;5119931;28;20031;-72
2022/08/20 07:06:42;;;;;;;14.95;9.77;;;;;;;30.81;45.74;99317.47;5118520;28;20031;-72
2022/08/20 07:09:08;;;;;;;16.80;9.80;;;;;;;30.86;45.27;99313.84;5119764;28;20043;-72
2022/08/20 07:11:34;;;;;;;17.75;9.20;;;;;;;31.03;45.71;99318.66;5118354;28;20050;-72
2022/08/20 07:14:03;;;;;;;18.77;9.23;;;;;;;31.01;45.36;99316.22;5090884;28;20035;-72
2022/08/20 07:16:29;;;;;;;15.57;9.55;;;;;;;31.06;44.85;99309.84;5121724;28;20031;-72
2022/08/20 07:18:54;;;;;;;11.82;9.45;;;;;;;31.24;45.13;99314.41;5119782;28;20082;-72
2022/08/20 07:21:20;;;;;;;13.52;9.30;;;;;;;31.21;45.84;99312.28;5118280;28;20027;-72
2022/08/20 07:23:48;;;;;;;17.83;8.98;;;;;;;31.63;43.65;99307.47;5118989;28;20222;-72
2022/08/20 07:26:13;;;;;;;11.70;9.23;;;;;;;31.94;43.56;99304.78;5118171;28;20027;-72
2022/08/20 07:28:39;;;;;;;20.83;9.60;;;;;;;31.84;43.56;99311.34;5119429;28;20295;-72
2022/08/20 07:33:49;;;;;;;15.65;9.85;;;;;;;32.11;42.71;99298.59;5119301;28;20104;-72
2022/08/20 07:36:15;;;;;;;18.95;9.93;;;;;;;31.90;43.37;99310.09;5118435;28;20028;-72
2022/08/20 07:38:40;;;;;;;14.70;9.65;;;;;;;32.28;42.69;99301.47;5118335;28;20046;-72
2022/08/20 07:41:12;;;;;;;16.20;9.85;;;;;;;32.03;43.01;99297.44;5121069;28;20020;-72
2022/08/20 07:43:38;;;;;;;16.23;9.75;;;;;;;31.89;42.72;99304.91;5120038;28;20031;-72
2022/08/20 07:46:06;;;;;;;14.60;8.77;;;;;;;31.95;43.01;99301.75;5120682;28;20107;-72
2022/08/20 07:48:32;;;;;;;11.35;8.85;;;;;;;32.15;42.52;99300.38;5121879;28;20053;-72
2022/08/20 07:51:02;;;;;;;12.32;8.93;;;;;;;32.42;42.55;99302.16;5118454;28;20043;-72
2022/08/20 07:53:27;;;;;;;15.40;9.43;;;;;;;32.83;40.87;99298.28;5117696;28;20044;-72
2022/08/20 07:55:53;;;;;;;18.15;9.18;;;;;;;32.54;41.14;99288.66;5115558;28;20065;-72
2022/08/20 07:58:22;;;;;;;13.60;8.88;;;;;;;32.48;42.01;99289.94;5118240;28;20090;-72
2022/08/20 08:00:48;;;;;;;14.35;9.30;;;;;;;32.16;44.00;99285.56;5117621;28;20095;-72
2022/08/20 08:03:14;;;;;;;27.35;9.80;;;;;;;32.56;42.27;99283.69;5118855;28;20038;-72
2022/08/20 08:05:44;;;;;;;16.63;9.07;;;;;;;32.71;41.32;99279.69;5120412;28;20031;-72
2022/08/20 08:08:16;;;;;;;10.77;8.93;;;;;;;32.40;41.34;99270.72;5120269;28;20035;-72
2022/08/20 08:10:45;;;;;;;19.08;9.43;;;;;;;32.35;42.16;99260.72;5118283;28;20043;-72
2022/08/20 08:13:13;;;;;;;14.07;8.55;;;;;;;32.79;41.23;99267.13;5117542;28;20286;-72
2022/08/20 08:15:41;;;;;;;11.73;8.52;;;;;;;33.05;39.88;99267.16;5118609;28;20048;-72
2022/08/20 08:18:20;;;;;;;17.42;8.90;;;;;;;33.30;40.00;99261.72;5117732;28;20135;-72
2022/08/20 08:20:47;;;;;;;13.27;7.55;;;;;;;33.61;39.21;99247.81;5117159;28;20377;-72
2022/08/20 08:23:13;;;;;;;11.65;8.63;;;;;;;33.04;39.99;99238.13;5117507;28;20031;-72
2022/08/20 08:25:44;;;;;;;17.73;9.00;;;;;;;32.80;40.94;99242.16;5118121;28;20229;-72
2022/08/20 08:28:10;;;;;;;13.02;8.13;;;;;;;32.85;40.95;99242.00;5117452;28;20039;-72
2022/08/20 08:30:47;;;;;;;10.85;8.05;;;;;;;33.09;40.51;99227.78;5120781;28;20035;-72
2022/08/20 08:33:28;;;;;;;14.65;8.57;;;;;;;33.08;40.21;99234.41;5090364;28;20055;-72
2022/08/20 08:36:08;;;;;;;11.38;7.93;;;;;;;33.18;40.50;99225.03;5119678;28;20063;-72
2022/08/20 08:38:36;;;;;;;15.90;8.30;;;;;;;33.30;38.81;99231.56;5119657;28;20040;-72
2022/08/20 08:41:30;;;;;;;9.15;7.63;;;;;;;33.48;39.00;99224.09;5123253;28;20091;-72
2022/08/20 08:44:11;;;;;;;15.23;8.48;;;;;;;33.07;39.53;99221.81;5123756;28;20043;-72
2022/08/20 08:46:43;;;;;;;13.07;8.80;;;;;;;32.40;39.45;99221.41;5122618;28;20023;-72
2022/08/20 08:49:19;;;;;;;14.77;8.73;;;;;;;32.67;40.26;99210.97;5125033;28;20048;-72
2022/08/20 08:51:50;;;;;;;15.07;8.07;;;;;;;33.13;40.15;99203.25;5122938;28;20331;-72
2022/08/20 08:54:20;;;;;;;15.95;8.30;;;;;;;33.45;38.40;99205.53;5121383;28;20299;-72
2022/08/20 08:56:46;;;;;;;15.15;8.77;;;;;;;33.49;38.40;99203.75;5122259;28;20376;-72
2022/08/20 08:59:12;;;;;;;16.60;8.48;;;;;;;33.26;38.76;99203.09;5121052;28;20378;-72
2022/08/20 09:01:45;;;;;;;15.30;8.90;;;;;;;32.99;39.77;99203.44;5121336;28;20031;-72
2022/08/20 09:04:12;;;;;;;11.70;8.07;;;;;;;32.69;39.70;99200.50;5121767;28;20091;-72
2022/08/20 09:06:39;;;;;;;13.48;9.07;;;;;;;32.68;39.53;99198.06;5121417;28;20137;-72
2022/08/20 09:09:11;;;;;;;11.68;8.55;;;;;;;32.91;39.14;99198.75;5120940;28;20023;-72
2022/08/20 09:11:49;;;;;;;13.25;8.27;;;;;;;33.03;38.82;99190.69;5120608;28;20050;-72
2022/08/20 09:14:15;;;;;;;16.58;8.90;;;;;;;32.95;38.41;99191.50;5123750;28;20043;-72
2022/08/20 09:16:40;;;;;;;14.27;8.63;;;;;;;32.65;39.66;99180.34;5121444;28;20249;-72
2022/08/20 09:19:06;;;;;;;14.50;8.23;;;;;;;33.09;39.33;99178.41;5102315;28;20414;-72
2022/08/20 09:21:31;;;;;;;14.23;8.55;;;;;;;33.28;39.86;99169.84;5121843;28;20036;-72
2022/08/20 09:23:57;;;;;;;12.20;8.63;;;;;;;33.50;39.28;99175.16;5122654;28;20039;-72
2022/08/20 09:26:22;;;;;;;14.73;8.43;;;;;;;33.37;37.82;99170.69;5120531;28;20039;-72
2022/08/20 09:28:48;;;;;;;10.23;8.15;;;;;;;33.17;38.07;99174.06;5121451;28;20329;-72
2022/08/20 09:31:13;;;;;;;12.77;7.65;;;;;;;33.03;38.92;99174.22;5120253;28;20019;-72
2022/08/20 09:33:38;;;;;;;16.63;8.50;;;;;;;33.07;38.83;99168.91;5121622;28;20049;-72
2022/08/20 09:36:04;;;;;;;13.30;8.30;;;;;;;32.90;38.74;99164.25;5120270;28;20031;-72
2022/08/20 09:38:30;;;;;;;15.07;8.10;;;;;;;32.69;39.16;99169.53;5101983;28;20027;-72
2022/08/20 09:40:55;;;;;;;13.85;8.23;;;;;;;32.30;39.60;99129.38;5121017;28;20229;-72
2022/08/20 09:43:21;;;;;;;12.65;8.75;;;;;;;32.79;39.52;99155.53;5119782;28;20051;-72
2022/08/20 09:45:46;;;;;;;13.35;8.88;;;;;;;32.59;40.51;99162.44;5121276;28;20035;-72
2022/08/20 09:48:12;;;;;;;14.43;8.73;;;;;;;32.64;39.88;99145.84;5121056;28;20344;-72
2022/08/20 09:50:41;;;;;;;17.58;8.60;;;;;;;32.78;39.87;99144.91;5119624;28;20098;-72
2022/08/20 09:53:08;;;;;;;13.45;7.43;;;;;;;32.43;39.95;99139.38;5119865;28;20355;-72
2022/08/20 09:55:43;;;;;;;13.77;7.85;;;;;;;32.83;39.53;99142.00;5120373;28;20337;-72
2022/08/20 09:58:42;;;;;;;12.40;8.23;;;;;;;32.94;40.50;99127.63;5119934;28;20063;-72
2022/08/20 10:01:13;;;;;;;13.32;8.70;;;;;;;32.89;38.51;99126.97;5117089;28;20060;-72
2022/08/20 10:03:43;;;;;;;19.05;8.27;;;;;;;33.19;38.46;99120.47;5120358;28;20140;-72
2022/08/20 10:06:10;;;;;;;11.85;7.25;;;;;;;33.43;38.30;99128.22;5119353;28;20320;-72
2022/08/20 10:08:36;;;;;;;13.55;8.55;;;;;;;33.23;37.15;99126.13;5119605;28;20213;-72
2022/08/20 10:11:01;;;;;;;15.10;8.15;;;;;;;33.24;37.48;99109.31;5120457;28;20035;-72
2022/08/20 10:13:27;;;;;;;14.25;8.32;;;;;;;33.40;38.45;99100.63;5119489;28;20077;-72
2022/08/20 10:15:52;;;;;;;13.90;7.38;;;;;;;33.41;36.51;99108.53;5120447;28;20028;-72
2022/08/20 10:18:18;;;;;;;8.93;6.68;;;;;;;33.57;37.10;99095.88;5119970;28;20035;-72
2022/08/20 10:20:43;;;;;;;10.00;7.00;;;;;;;33.37;36.62;99098.53;5122448;28;20379;-72
2022/08/20 10:23:09;;;;;;;14.25;6.80;;;;;;;33.39;35.79;99104.50;5121878;28;20325;-72
2022/08/20 10:25:35;;;;;;;13.30;6.50;;;;;;;33.33;34.34;99098.38;5120315;28;20028;-72
2022/08/20 10:28:01;;;;;;;11.20;6.60;;;;;;;33.55;34.97;99075.38;5119291;28;20042;-72
2022/08/20 10:30:27;;;;;;;8.93;6.03;;;;;;;33.86;34.59;99080.56;5101970;28;20040;-72
2022/08/20 10:32:52;;;;;;;10.25;6.18;;;;;;;33.86;34.47;99080.56;5119373;28;20032;-72
2022/08/20 10:35:18;;;;;;;11.20;6.13;;;;;;;33.81;33.76;99087.06;5122267;28;20058;-72
2022/08/20 10:37:44;;;;;;;9.13;5.55;;;;;;;33.73;34.28;99084.31;5121462;28;20328;-72
2022/08/20 10:40:10;;;;;;;9.40;5.93;;;;;;;33.66;33.40;99071.13;5121333;28;20198;-72
2022/08/20 10:42:35;;;;;;;11.57;5.65;;;;;;;33.79;33.42;99080.25;5122694;28;20043;-72
2022/08/20 10:45:01;;;;;;;9.35;5.75;;;;;;;33.61;32.32;99085.84;5121416;28;20035;-72
2022/08/20 10:47:30;;;;;;;9.93;5.43;;;;;;;33.81;32.43;99061.50;5123314;28;20039;-72
2022/08/20 10:49:57;;;;;;;9.30;6.18;;;;;;;33.88;32.75;99067.31;5121938;28;20096;-72
2022/08/20 10:52:24;;;;;;;8.63;6.03;;;;;;;33.73;33.97;99060.41;5118816;28;20173;-72
2022/08/20 10:54:51;;;;;;;8.82;6.18;;;;;;;33.75;32.45;99062.84;5118185;28;20035;-72
2022/08/20 10:57:20;;;;;;;10.63;5.78;;;;;;;33.74;31.84;99058.47;5119519;28;20027;-72
2022/08/20 10:59:49;;;;;;;12.75;6.00;;;;;;;33.93;32.60;99053.38;5118793;28;20036;-72
2022/08/20 11:02:15;;;;;;;10.77;5.78;;;;;;;34.14;32.69;99047.91;5118670;28;20028;-72
2022/08/20 11:04:42;;;;;;;12.20;6.60;;;;;;;34.14;31.54;99056.94;5121279;28;20311;-72
2022/08/20 11:07:20;;;;;;;10.05;5.53;;;;;;;34.09;31.88;99042.59;5121928;28;20206;-72
2022/08/20 11:09:47;;;;;;;10.13;5.90;;;;;;;34.14;32.47;99039.66;5119584;28;20023;-72
2022/08/20 11:12:15;;;;;;;12.68;6.45;;;;;;;34.10;31.61;99041.47;5118266;28;20031;-72
2022/08/20 11:14:41;;;;;;;7.43;5.70;;;;;;;34.14;31.72;99036.91;5119644;28;20415;-72
2022/08/20 11:17:07;;;;;;;9.35;6.05;;;;;;;34.15;32.31;99019.28;5117927;28;20035;-72
2022/08/20 11:19:38;;;;;;;11.43;6.28;;;;;;;33.97;30.74;99018.63;5118462;28;20035;-72
2022/08/20 11:22:03;;;;;;;12.40;6.18;;;;;;;34.25;31.39;99021.63;5118920;28;20077;-72
2022/08/20 11:24:29;;;;;;;11.93;6.15;;;;;;;34.39;30.66;99026.91;5117903;28;20043;-72
2022/08/20 11:26:55;;;;;;;13.18;5.82;;;;;;;34.43;30.40;99019.59;5119384;28;20027;-72
2022/08/20 11:29:21;;;;;;;10.82;5.80;;;;;;;34.21;31.11;99024.25;5119292;28;20042;-72
2022/08/20 11:31:47;;;;;;;8.52;5.65;;;;;;;34.34;31.65;99030.66;5118115;28;20027;-72